Time;durP1;ratioP1;P1;durP2;ratioP2;P2;SDS_P1;SDS_P2;PMS_P1;PMS_P2;Temp;Humidity;BMP_temperature;BMP_pressure;BME280_temperature;BME280_humidity;BME280_pressure;Samples;Min_cycle;Max_cycle;Signal;HPM_P1;HPM_P2
2023/01/30 00:01:01;;;;;;;19.07;15.03;;;1.30;99.90;;;;;;6177076;28;20786;-66
2023/01/30 00:04:04;;;;;;;26.53;16.90;;;1.30;99.90;;;;;;6155761;28;20545;-67
2023/01/30 00:07:08;;;;;;;22.33;15.63;;;1.40;99.90;;;;;;6152429;28;20471;-67
2023/01/30 00:10:11;;;;;;;25.20;16.23;;;1.40;99.90;;;;;;6153048;28;20483;-66
2023/01/30 00:13:15;;;;;;;24.83;16.00;;;1.40;99.90;;;;;;6153164;28;20982;-67
2023/01/30 00:16:20;;;;;;;21.67;18.80;;;1.40;99.90;;;;;;6153299;28;20982;-67
2023/01/30 00:19:23;;;;;;;37.53;28.47;;;1.40;99.90;;;;;;6157337;28;20953;-66
2023/01/30 00:22:26;;;;;;;31.60;26.50;;;1.40;99.90;;;;;;6158115;28;20482;-66
2023/01/30 00:25:30;;;;;;;22.67;16.40;;;1.40;99.90;;;;;;6155925;28;20482;-67
2023/01/30 00:28:34;;;;;;;22.90;15.63;;;1.40;99.90;;;;;;6176647;28;21081;-66
2023/01/30 00:31:38;;;;;;;18.47;15.13;;;1.40;99.90;;;;;;6176521;28;20589;-67
2023/01/30 00:34:42;;;;;;;19.87;14.37;;;1.40;99.90;;;;;;6176507;28;20478;-66
2023/01/30 00:37:45;;;;;;;20.07;14.23;;;1.50;99.90;;;;;;6176277;28;20489;-66
2023/01/30 00:40:48;;;;;;;26.63;16.23;;;1.50;99.90;;;;;;6176336;28;20469;-67
2023/01/30 00:47:14;;;;;;;26.07;16.87;;;1.50;99.90;;;;;;6176631;28;20451;-66
2023/01/30 00:50:17;;;;;;;23.60;15.60;;;1.50;99.90;;;;;;6176641;28;20461;-66
2023/01/30 00:53:21;;;;;;;22.60;15.37;;;1.50;99.90;;;;;;6177332;28;20450;-66
2023/01/30 00:56:24;;;;;;;20.00;15.00;;;1.50;99.90;;;;;;6199198;28;20449;-66
2023/01/30 00:59:27;;;;;;;22.17;15.00;;;1.50;99.90;;;;;;6178814;28;20546;-66
2023/01/30 01:02:32;;;;;;;20.97;13.87;;;1.50;99.90;;;;;;6197849;28;20441;-66
2023/01/30 01:05:35;;;;;;;24.70;16.70;;;1.40;99.90;;;;;;6179400;28;20469;-67
2023/01/30 01:08:38;;;;;;;23.77;14.40;;;1.40;99.90;;;;;;6188296;28;20927;-67
2023/01/30 01:11:41;;;;;;;19.03;14.50;;;1.40;99.90;;;;;;6179824;28;20472;-67
2023/01/30 01:14:45;;;;;;;23.10;15.63;;;1.40;99.90;;;;;;6195961;28;20797;-67
2023/01/30 01:17:50;;;;;;;18.30;14.77;;;1.40;99.90;;;;;;6182421;28;20468;-66
2023/01/30 01:20:53;;;;;;;20.30;13.70;;;1.30;99.90;;;;;;6199279;28;20469;-65
2023/01/30 01:23:58;;;;;;;18.23;14.43;;;1.30;99.90;;;;;;6186114;28;20493;-65
2023/01/30 01:27:01;;;;;;;25.07;14.83;;;1.30;99.90;;;;;;6198275;28;20469;-65
2023/01/30 01:30:05;;;;;;;24.27;17.70;;;1.30;99.90;;;;;;6180215;28;20482;-65
2023/01/30 01:33:10;;;;;;;21.50;16.17;;;1.30;99.90;;;;;;6180106;28;20528;-65
2023/01/30 01:36:13;;;;;;;24.53;16.03;;;1.30;99.90;;;;;;6180604;28;20473;-65
2023/01/30 01:42:53;;;;;;;21.53;15.00;;;1.20;99.90;;;;;;6179574;28;20486;-65
2023/01/30 01:46:01;;;;;;;21.67;14.47;;;1.20;99.90;;;;;;6180134;28;20781;-65
2023/01/30 01:49:12;;;;;;;21.17;15.30;;;1.10;99.90;;;;;;6180124;28;20486;-65
2023/01/30 01:52:17;;;;;;;22.37;14.00;;;1.10;99.90;;;;;;6180120;28;20509;-65
2023/01/30 01:55:22;;;;;;;19.17;14.97;;;1.00;99.90;;;;;;6179932;28;20496;-67
2023/01/30 01:58:29;;;;;;;22.53;15.20;;;1.00;99.90;;;;;;6180044;28;20478;-65
2023/01/30 02:01:33;;;;;;;22.07;14.60;;;0.90;99.90;;;;;;6178755;28;20465;-65
2023/01/30 02:08:04;;;;;;;20.67;13.80;;;1.00;99.90;;;;;;6155265;28;20871;-65
2023/01/30 02:11:12;;;;;;;22.60;14.23;;;0.90;99.90;;;;;;6155556;28;20521;-66
2023/01/30 02:14:17;;;;;;;18.13;13.90;;;0.90;99.90;;;;;;6179716;28;20461;-66
2023/01/30 02:17:21;;;;;;;19.67;14.60;;;0.90;99.90;;;;;;6179393;28;20904;-65
2023/01/30 02:20:36;;;;;;;17.53;12.60;;;0.80;99.90;;;;;;6178929;28;20471;-66
2023/01/30 02:24:14;;;;;;;19.83;14.37;;;0.90;99.90;;;;;;6179377;28;20466;-65
2023/01/30 02:27:29;;;;;;;21.37;15.00;;;0.80;99.90;;;;;;6195681;28;20484;-66
2023/01/30 02:31:07;;;;;;;20.20;14.93;;;0.80;99.90;;;;;;6202761;28;20507;-66
2023/01/30 02:34:27;;;;;;;24.17;14.77;;;0.80;99.90;;;;;;6172868;28;20477;-66
2023/01/30 02:37:43;;;;;;;22.10;15.33;;;0.70;99.90;;;;;;6204458;28;20477;-65
2023/01/30 02:40:56;;;;;;;19.53;14.03;;;0.70;99.90;;;;;;6203277;28;20465;-65
2023/01/30 02:44:04;;;;;;;24.30;16.47;;;0.70;99.90;;;;;;6203079;28;20492;-66
2023/01/30 02:47:14;;;;;;;23.27;16.30;;;0.60;99.90;;;;;;6202928;28;20473;-66
2023/01/30 02:50:22;;;;;;;24.07;15.93;;;0.60;99.90;;;;;;6202523;28;20480;-65
2023/01/30 02:53:25;;;;;;;20.50;15.90;;;0.70;99.90;;;;;;6200931;28;20782;-66
2023/01/30 02:56:29;;;;;;;20.60;14.80;;;0.60;99.90;;;;;;6178807;28;20454;-65
2023/01/30 02:59:35;;;;;;;23.33;16.13;;;0.60;99.90;;;;;;6178324;28;20532;-65
2023/01/30 03:03:07;;;;;;;23.30;15.63;;;0.60;99.90;;;;;;6178683;28;20935;-65
2023/01/30 03:06:33;;;;;;;18.67;13.43;;;0.60;99.90;;;;;;6178809;28;20478;-66
2023/01/30 03:09:48;;;;;;;20.20;14.40;;;0.60;99.90;;;;;;6189499;28;20821;-65
2023/01/30 03:12:59;;;;;;;18.87;14.97;;;0.60;99.90;;;;;;6188960;28;21018;-66
2023/01/30 03:16:06;;;;;;;20.57;14.07;;;0.60;99.90;;;;;;6193875;28;20567;-65
2023/01/30 03:19:13;;;;;;;20.80;13.97;;;0.50;99.90;;;;;;6186498;28;20827;-65
2023/01/30 03:22:16;;;;;;;17.47;13.30;;;0.50;99.90;;;;;;6194591;28;20476;-65
2023/01/30 03:25:22;;;;;;;20.90;14.50;;;0.50;99.90;;;;;;6185090;28;20485;-65
2023/01/30 03:28:26;;;;;;;21.13;14.90;;;0.50;99.90;;;;;;6195195;28;20481;-65
2023/01/30 03:31:29;;;;;;;25.27;14.77;;;0.40;99.90;;;;;;6183525;28;20480;-65
2023/01/30 03:34:34;;;;;;;20.57;15.07;;;0.40;99.90;;;;;;6177460;28;20478;-66
2023/01/30 03:37:37;;;;;;;24.03;15.10;;;0.40;99.90;;;;;;6177812;28;20474;-66
2023/01/30 03:40:41;;;;;;;19.30;13.27;;;0.30;99.90;;;;;;6176970;28;20489;-66
2023/01/30 03:43:44;;;;;;;21.20;14.97;;;0.30;99.90;;;;;;6177669;28;20955;-66
2023/01/30 03:46:47;;;;;;;21.17;14.90;;;0.30;99.90;;;;;;6177457;28;20967;-66
2023/01/30 03:49:52;;;;;;;22.23;15.53;;;0.30;99.90;;;;;;6177483;28;20490;-66
2023/01/30 03:52:55;;;;;;;20.77;14.87;;;0.30;99.90;;;;;;6177222;28;20482;-66
2023/01/30 03:55:58;;;;;;;23.20;16.07;;;0.30;99.90;;;;;;6177301;28;20490;-66
2023/01/30 03:59:01;;;;;;;23.30;14.40;;;0.30;99.90;;;;;;6177100;28;20473;-66
2023/01/30 04:02:04;;;;;;;17.47;13.00;;;0.30;99.90;;;;;;6177139;28;20532;-66
2023/01/30 04:05:09;;;;;;;21.67;14.90;;;0.20;99.90;;;;;;6177119;28;20497;-66
2023/01/30 04:08:13;;;;;;;24.37;17.03;;;0.20;99.90;;;;;;6177071;28;20496;-66
2023/01/30 04:11:16;;;;;;;23.70;15.83;;;0.10;99.90;;;;;;6176923;28;20453;-66
2023/01/30 04:14:19;;;;;;;18.63;13.80;;;0.10;99.90;;;;;;6200394;28;20492;-66
2023/01/30 04:17:22;;;;;;;19.30;13.77;;;0.10;99.90;;;;;;6178190;28;20449;-66
2023/01/30 04:20:27;;;;;;;22.70;14.73;;;0.00;99.90;;;;;;6191282;28;20469;-68
2023/01/30 04:23:30;;;;;;;18.33;13.07;;;0.00;99.90;;;;;;6179155;28;20448;-66
2023/01/30 04:26:33;;;;;;;20.73;14.33;;;0.00;99.90;;;;;;6198293;28;20774;-66
2023/01/30 04:29:36;;;;;;;24.33;14.00;;;-0.10;99.90;;;;;;6176833;28;20481;-66
2023/01/30 04:32:39;;;;;;;25.13;14.83;;;-0.10;99.90;;;;;;6177151;28;20473;-66
2023/01/30 04:35:53;;;;;;;17.80;14.33;;;-0.20;99.90;;;;;;6176886;28;20477;-66
2023/01/30 04:38:57;;;;;;;20.60;13.47;;;-0.20;99.90;;;;;;6177706;28;20789;-66
2023/01/30 04:42:00;;;;;;;17.03;12.90;;;-0.20;99.90;;;;;;6177631;28;20478;-66
2023/01/30 04:45:03;;;;;;;23.03;13.90;;;-0.20;99.90;;;;;;6177047;28;20469;-66
2023/01/30 04:48:07;;;;;;;19.93;13.50;;;-0.20;99.90;;;;;;6176723;28;20808;-66
2023/01/30 04:51:11;;;;;;;22.80;14.03;;;-0.20;99.90;;;;;;6177195;28;20481;-66
2023/01/30 04:54:15;;;;;;;18.03;14.10;;;-0.20;99.90;;;;;;6181194;28;20480;-66
2023/01/30 04:57:18;;;;;;;18.73;13.97;;;-0.20;99.90;;;;;;6181598;28;20466;-67
2023/01/30 05:00:21;;;;;;;19.30;14.40;;;-0.20;99.90;;;;;;6181134;28;20965;-66
2023/01/30 05:03:24;;;;;;;20.83;14.47;;;-0.20;99.90;;;;;;6186179;28;20477;-66
2023/01/30 05:06:30;;;;;;;20.30;13.47;;;-0.20;99.90;;;;;;6185552;28;20484;-66
2023/01/30 05:09:33;;;;;;;22.47;16.20;;;-0.30;99.90;;;;;;6195919;28;20476;-66
2023/01/30 05:12:37;;;;;;;16.93;13.20;;;-0.30;99.90;;;;;;6195478;28;20488;-67
2023/01/30 05:15:40;;;;;;;22.37;14.40;;;-0.30;99.90;;;;;;6192381;28;20468;-67
2023/01/30 05:18:44;;;;;;;17.87;13.00;;;-0.30;99.90;;;;;;6193166;28;20978;-67
2023/01/30 05:21:48;;;;;;;21.73;14.77;;;-0.30;99.90;;;;;;6193139;28;20473;-68
2023/01/30 05:24:52;;;;;;;20.93;15.10;;;-0.30;99.90;;;;;;6184486;28;20485;-67
2023/01/30 05:27:55;;;;;;;19.70;12.53;;;-0.40;99.90;;;;;;6199807;28;20481;-67
2023/01/30 05:31:01;;;;;;;20.13;13.97;;;-0.50;99.90;;;;;;6190673;28;20789;-69
2023/01/30 05:34:05;;;;;;;18.90;13.87;;;-0.50;99.90;;;;;;6180752;28;20808;-67
2023/01/30 05:37:10;;;;;;;21.53;13.90;;;-0.50;99.90;;;;;;6180460;28;20565;-68
2023/01/30 05:40:14;;;;;;;25.57;13.87;;;-0.50;99.90;;;;;;6180049;28;20474;-68
2023/01/30 05:43:17;;;;;;;18.47;13.07;;;-0.40;99.90;;;;;;6180351;28;20481;-66
2023/01/30 05:46:20;;;;;;;22.00;15.13;;;-0.40;99.90;;;;;;6180149;28;20478;-66
2023/01/30 05:49:24;;;;;;;18.23;14.50;;;-0.40;99.90;;;;;;6180423;28;20492;-67
2023/01/30 05:52:28;;;;;;;20.93;13.07;;;-0.40;99.90;;;;;;6180124;28;20470;-66
2023/01/30 05:55:31;;;;;;;20.63;14.70;;;-0.40;99.90;;;;;;6180244;28;20482;-66
2023/01/30 05:58:35;;;;;;;22.07;14.80;;;-0.40;99.90;;;;;;6179702;28;20482;-66
2023/01/30 06:01:38;;;;;;;17.23;13.63;;;-0.40;99.90;;;;;;6178580;28;20482;-66
2023/01/30 06:04:41;;;;;;;20.80;14.63;;;-0.40;99.90;;;;;;6179031;28;20466;-67
2023/01/30 06:07:46;;;;;;;23.93;13.97;;;-0.40;99.90;;;;;;6179429;28;20477;-66
2023/01/30 06:10:49;;;;;;;21.43;14.80;;;-0.40;99.90;;;;;;6200374;28;20484;-66
2023/01/30 06:13:52;;;;;;;24.50;18.10;;;-0.30;99.90;;;;;;6182455;28;20478;-67
2023/01/30 06:16:55;;;;;;;24.53;16.73;;;-0.30;99.90;;;;;;6200645;28;20487;-67
2023/01/30 06:19:58;;;;;;;26.23;16.47;;;-0.30;99.90;;;;;;6181326;28;20513;-66
2023/01/30 06:23:03;;;;;;;21.50;15.63;;;-0.20;99.90;;;;;;6202038;28;20810;-66
2023/01/30 06:26:06;;;;;;;26.87;17.10;;;-0.10;99.90;;;;;;6180431;28;20485;-67
2023/01/30 06:29:11;;;;;;;25.93;17.07;;;-0.10;99.90;;;;;;6202713;28;20489;-67
2023/01/30 06:32:14;;;;;;;23.40;16.50;;;-0.10;99.90;;;;;;6203783;28;20487;-67
2023/01/30 06:35:17;;;;;;;23.20;15.27;;;-0.10;99.90;;;;;;6204113;28;20487;-67
2023/01/30 06:38:23;;;;;;;23.07;17.43;;;-0.10;99.90;;;;;;6202662;28;20469;-67
2023/01/30 06:41:28;;;;;;;24.13;16.63;;;0.00;99.90;;;;;;6181871;28;20442;-67
2023/01/30 06:44:31;;;;;;;21.87;16.57;;;0.00;99.90;;;;;;6182341;28;20449;-67
2023/01/30 06:47:34;;;;;;;28.03;16.40;;;0.10;99.90;;;;;;6180157;28;20458;-67
2023/01/30 06:50:37;;;;;;;27.40;17.77;;;0.20;99.90;;;;;;6178884;28;20550;-67
2023/01/30 06:53:42;;;;;;;25.17;18.10;;;0.10;99.90;;;;;;6178819;28;20473;-67
2023/01/30 06:56:45;;;;;;;23.80;18.50;;;0.20;99.90;;;;;;6178477;28;20489;-67
2023/01/30 06:59:48;;;;;;;19.33;15.60;;;0.40;99.90;;;;;;6178422;28;20476;-67
2023/01/30 07:02:51;;;;;;;22.37;16.27;;;0.50;99.90;;;;;;6178634;28;20474;-67
2023/01/30 07:05:54;;;;;;;24.07;16.33;;;0.60;99.90;;;;;;6178044;28;20964;-66
2023/01/30 07:08:59;;;;;;;26.60;16.90;;;0.70;99.90;;;;;;6183637;28;20481;-66
2023/01/30 07:12:02;;;;;;;24.10;16.50;;;0.70;99.90;;;;;;6195654;28;20485;-67
2023/01/30 07:15:07;;;;;;;22.30;17.53;;;0.80;99.90;;;;;;6183676;28;20809;-67
2023/01/30 07:18:10;;;;;;;28.97;21.07;;;0.70;99.90;;;;;;6194762;28;20482;-66
2023/01/30 07:21:13;;;;;;;28.83;19.77;;;0.80;99.90;;;;;;6185924;28;20476;-68
2023/01/30 07:24:18;;;;;;;30.57;20.80;;;0.80;99.90;;;;;;6194285;28;20592;-67
2023/01/30 07:27:21;;;;;;;23.23;17.90;;;0.80;99.90;;;;;;6187039;28;20488;-66
2023/01/30 07:30:24;;;;;;;21.23;17.30;;;0.80;99.90;;;;;;6195592;28;20478;-67
2023/01/30 07:33:27;;;;;;;22.90;16.27;;;0.80;99.90;;;;;;6190662;28;20474;-67
2023/01/30 07:36:32;;;;;;;26.70;16.20;;;0.80;99.90;;;;;;6186609;28;20978;-67
2023/01/30 07:39:37;;;;;;;21.37;16.40;;;0.70;99.90;;;;;;6188723;28;20473;-67
2023/01/30 07:42:40;;;;;;;24.77;14.90;;;0.80;99.90;;;;;;6181749;28;20473;-67
2023/01/30 07:45:45;;;;;;;24.73;15.47;;;0.80;99.90;;;;;;6177768;28;20788;-67
2023/01/30 07:48:48;;;;;;;17.13;13.13;;;0.90;99.90;;;;;;6177221;28;20481;-67
2023/01/30 07:51:52;;;;;;;19.87;15.17;;;1.00;99.90;;;;;;6177430;28;20469;-67
2023/01/30 07:54:57;;;;;;;25.50;17.47;;;0.90;99.90;;;;;;6177157;28;20485;-67
2023/01/30 07:58:04;;;;;;;19.80;14.70;;;1.00;99.90;;;;;;6177316;28;20765;-66
2023/01/30 08:01:07;;;;;;;22.13;16.00;;;1.00;99.90;;;;;;6177369;28;20485;-68
2023/01/30 08:04:10;;;;;;;23.00;15.77;;;0.90;99.90;;;;;;6177084;28;20550;-67
2023/01/30 08:07:13;;;;;;;22.27;15.93;;;0.90;99.90;;;;;;6177250;28;21021;-66
2023/01/30 08:10:18;;;;;;;21.63;16.53;;;1.00;99.90;;;;;;6192931;28;20487;-66
2023/01/30 08:13:22;;;;;;;27.00;15.13;;;1.00;99.90;;;;;;6184491;28;20533;-66
2023/01/30 08:16:25;;;;;;;19.77;15.50;;;1.00;99.90;;;;;;6194295;28;20976;-66
2023/01/30 08:19:28;;;;;;;23.57;16.53;;;1.10;99.90;;;;;;6183383;28;20477;-66
2023/01/30 08:22:31;;;;;;;25.00;18.83;;;1.10;99.90;;;;;;6195058;28;20465;-66
2023/01/30 08:25:37;;;;;;;27.27;17.13;;;1.20;99.90;;;;;;6182404;28;20462;-67
2023/01/30 08:28:40;;;;;;;26.90;17.97;;;1.20;99.90;;;;;;6196255;28;20520;-66
2023/01/30 08:31:43;;;;;;;28.83;18.07;;;1.30;99.90;;;;;;6181188;28;20477;-66
2023/01/30 08:34:47;;;;;;;26.20;18.77;;;1.30;99.90;;;;;;6167753;28;20489;-66
2023/01/30 08:37:50;;;;;;;23.57;18.17;;;1.50;99.90;;;;;;6176932;28;20812;-66
2023/01/30 08:40:55;;;;;;;31.77;20.07;;;1.70;99.90;;;;;;6176633;28;20493;-67
2023/01/30 08:43:59;;;;;;;30.87;24.40;;;1.80;99.90;;;;;;6177068;28;20489;-67
2023/01/30 08:47:02;;;;;;;47.53;33.30;;;2.10;99.90;;;;;;6176809;28;20522;-67
2023/01/30 08:50:05;;;;;;;28.10;22.03;;;2.20;99.90;;;;;;6177199;28;20493;-67
2023/01/30 08:53:09;;;;;;;28.07;21.10;;;2.30;99.90;;;;;;6176863;28;20482;-67
2023/01/30 08:56:13;;;;;;;31.23;21.80;;;2.50;99.90;;;;;;6176473;28;20489;-67
2023/01/30 08:59:17;;;;;;;28.20;21.40;;;2.80;99.90;;;;;;6176393;28;20481;-67
2023/01/30 09:02:20;;;;;;;39.17;27.30;;;3.00;99.90;;;;;;6176279;28;20454;-67
2023/01/30 09:05:24;;;;;;;29.13;20.90;;;3.40;99.90;;;;;;6176385;28;20442;-67
2023/01/30 09:08:27;;;;;;;29.80;20.37;;;3.60;99.90;;;;;;6178247;28;20466;-67
2023/01/30 09:11:32;;;;;;;29.87;21.07;;;3.90;99.90;;;;;;6198915;28;20460;-67
2023/01/30 09:14:35;;;;;;;30.20;21.90;;;4.10;99.90;;;;;;6178661;28;20496;-67
2023/01/30 09:17:38;;;;;;;25.67;19.03;;;4.30;99.90;;;;;;6197593;28;20784;-68
2023/01/30 09:20:41;;;;;;;36.03;24.10;;;4.60;99.90;;;;;;6179728;28;20469;-68
2023/01/30 09:23:45;;;;;;;32.63;21.83;;;4.90;99.90;;;;;;6196468;28;20989;-66
2023/01/30 09:26:49;;;;;;;25.47;20.47;;;5.00;99.90;;;;;;6180779;28;20480;-66
2023/01/30 09:29:53;;;;;;;24.23;19.37;;;5.30;99.90;;;;;;6195006;28;20819;-66
2023/01/30 09:32:56;;;;;;;30.83;20.80;;;5.30;99.40;;;;;;6176133;28;20469;-66
2023/01/30 09:35:59;;;;;;;25.00;17.63;;;5.30;98.90;;;;;;6176258;28;20481;-67
2023/01/30 09:39:02;;;;;;;23.70;17.33;;;5.10;98.70;;;;;;6178239;28;20585;-67
2023/01/30 09:42:32;;;;;;;36.10;25.40;;;4.90;99.30;;;;;;6180745;28;20480;-67
2023/01/30 09:45:49;;;;;;;26.10;18.73;;;5.00;99.70;;;;;;6180434;28;20804;-67
2023/01/30 09:49:01;;;;;;;24.63;19.13;;;5.10;99.00;;;;;;6180257;28;20863;-67
2023/01/30 09:52:20;;;;;;;25.80;18.03;;;5.30;98.80;;;;;;6180365;28;20783;-67
2023/01/30 09:55:28;;;;;;;27.03;20.63;;;5.60;98.50;;;;;;6180525;28;20609;-67
2023/01/30 09:58:42;;;;;;;27.23;20.10;;;5.70;98.30;;;;;;6181169;28;20936;-67
2023/01/30 10:01:54;;;;;;;25.50;19.23;;;6.20;98.50;;;;;;6188813;28;20495;-67
2023/01/30 10:04:58;;;;;;;22.33;17.20;;;6.80;97.20;;;;;;6198300;28;20485;-68
2023/01/30 10:08:21;;;;;;;28.63;19.03;;;7.10;95.90;;;;;;6189266;28;20478;-67
2023/01/30 10:11:39;;;;;;;21.43;17.77;;;7.10;95.10;;;;;;6181671;28;20882;-67
2023/01/30 10:14:59;;;;;;;23.20;17.00;;;7.00;95.80;;;;;;6200583;28;20491;-67
2023/01/30 10:18:21;;;;;;;25.57;16.87;;;7.20;95.00;;;;;;6185999;28;20477;-67
2023/01/30 10:21:36;;;;;;;19.30;14.17;;;7.30;94.70;;;;;;6194792;28;20486;-67
2023/01/30 10:24:51;;;;;;;17.17;12.43;;;7.40;94.10;;;;;;6190758;28;20971;-68
2023/01/30 10:28:00;;;;;;;15.83;12.57;;;7.60;94.40;;;;;;6189906;28;20553;-67
2023/01/30 10:31:11;;;;;;;16.67;12.60;;;8.10;93.00;;;;;;6179722;28;20485;-67
2023/01/30 10:34:18;;;;;;;14.30;11.73;;;8.90;91.90;;;;;;6179466;28;20485;-67
2023/01/30 10:37:29;;;;;;;18.33;12.07;;;10.10;89.80;;;;;;6179499;28;20469;-67
2023/01/30 10:40:39;;;;;;;13.20;11.57;;;10.80;83.50;;;;;;6179197;28;20489;-66
2023/01/30 10:43:47;;;;;;;13.37;11.80;;;11.70;81.20;;;;;;6179352;28;20481;-66
2023/01/30 10:47:07;;;;;;;11.80;10.33;;;13.10;77.80;;;;;;6179522;28;20480;-66
2023/01/30 10:50:17;;;;;;;12.57;10.63;;;15.70;66.20;;;;;;6178772;28;21116;-66
2023/01/30 10:53:26;;;;;;;42.23;29.07;;;16.10;56.50;;;;;;6178591;28;20956;-66
2023/01/30 10:56:35;;;;;;;22.30;16.47;;;14.80;56.00;;;;;;6178673;28;20953;-67
2023/01/30 10:59:50;;;;;;;17.07;14.60;;;13.50;56.60;;;;;;6178573;28;20473;-67
2023/01/30 11:03:04;;;;;;;16.47;13.37;;;12.40;59.50;;;;;;6178661;28;20977;-67
2023/01/30 11:06:12;;;;;;;14.50;12.80;;;12.20;62.50;;;;;;6178687;28;20548;-66
2023/01/30 11:09:15;;;;;;;14.80;11.17;;;13.70;65.00;;;;;;6186180;28;20487;-67
2023/01/30 11:12:19;;;;;;;13.67;12.23;;;18.10;55.20;;;;;;6194373;28;20474;-67
2023/01/30 11:15:24;;;;;;;16.63;11.60;;;22.50;47.60;;;;;;6187074;28;21000;-67
2023/01/30 11:18:29;;;;;;;11.80;10.60;;;24.40;34.20;;;;;;6192835;28;20253;-67
2023/01/30 11:21:55;;;;;;;14.70;13.20;;;25.70;31.90;;;;;;6190703;28;20262;-68
2023/01/30 11:25:03;;;;;;;16.00;11.40;;;27.40;28.60;;;;;;6188783;28;20234;-67
2023/01/30 11:28:06;;;;;;;18.23;12.00;;;29.30;25.80;;;;;;6192474;28;20252;-68
2023/01/30 11:31:18;;;;;;;12.20;11.00;;;30.20;23.80;;;;;;6187294;28;20249;-67
2023/01/30 11:34:39;;;;;;;10.87;9.87;;;31.50;21.90;;;;;;6177773;28;20239;-68
2023/01/30 11:37:43;;;;;;;10.60;9.70;;;32.30;20.70;;;;;;6177819;28;20244;-69
2023/01/30 11:40:46;;;;;;;10.23;9.23;;;32.20;20.30;;;;;;6177597;28;20229;-68
2023/01/30 11:43:50;;;;;;;10.68;9.63;;;32.80;19.70;;;;;;6177605;28;20253;-68
2023/01/30 11:46:54;;;;;;;9.60;8.60;;;33.80;18.80;;;;;;6177538;28;20666;-69
2023/01/30 11:50:01;;;;;;;9.02;8.23;;;34.90;17.80;;;;;;6177407;28;20237;-67
2023/01/30 11:53:32;;;;;;;10.68;9.57;;;35.10;17.10;;;;;;6177405;28;20273;-68
2023/01/30 11:56:39;;;;;;;11.00;9.90;;;35.60;16.70;;;;;;6186743;28;20637;-68
2023/01/30 11:59:46;;;;;;;10.48;9.48;;;35.70;16.40;;;;;;6201530;28;20557;-69
2023/01/30 12:02:50;;;;;;;9.70;8.90;;;35.40;15.80;;;;;;6189060;28;20270;-68
2023/01/30 12:05:57;;;;;;;9.68;8.80;;;35.60;16.00;;;;;;6175285;28;20229;-67
2023/01/30 12:09:00;;;;;;;9.38;8.35;;;35.20;15.80;;;;;;6183022;28;20242;-67
2023/01/30 12:12:23;;;;;;;9.60;8.70;;;35.30;15.50;;;;;;6194786;28;20232;-68
2023/01/30 12:15:28;;;;;;;9.05;8.25;;;34.30;15.60;;;;;;6186611;28;20248;-67
2023/01/30 12:18:43;;;;;;;7.68;6.97;;;34.90;15.50;;;;;;6190845;28;20252;-67
2023/01/30 12:21:53;;;;;;;9.38;7.75;;;35.30;15.20;;;;;;6188892;28;20240;-68
2023/01/30 12:24:59;;;;;;;8.98;8.07;;;35.20;14.60;;;;;;6187735;28;20241;-67
2023/01/30 12:28:10;;;;;;;8.55;7.80;;;34.80;15.00;;;;;;6190720;28;20243;-67
2023/01/30 12:31:19;;;;;;;8.00;7.20;;;35.00;15.30;;;;;;6185457;28;20236;-68
2023/01/30 12:34:23;;;;;;;9.85;8.55;;;35.90;14.70;;;;;;6176430;28;20225;-68
2023/01/30 12:37:48;;;;;;;10.60;7.88;;;35.10;14.70;;;;;;6176306;28;20244;-69
2023/01/30 12:41:05;;;;;;;7.70;6.80;;;34.40;15.00;;;;;;6176913;28;20553;-68
2023/01/30 12:44:53;;;;;;;8.90;7.25;;;34.20;15.20;;;;;;6176550;28;20230;-67
2023/01/30 12:48:20;;;;;;;9.30;7.15;;;34.40;15.40;;;;;;6166393;28;20251;-69
2023/01/30 12:51:41;;;;;;;6.57;5.97;;;34.10;15.70;;;;;;6176981;28;20581;-70
2023/01/30 12:54:55;;;;;;;8.45;7.00;;;34.20;15.30;;;;;;6177115;28;20233;-69
2023/01/30 12:58:03;;;;;;;8.77;7.10;;;34.50;15.00;;;;;;6176209;28;20305;-67
2023/01/30 13:01:21;;;;;;;7.15;5.75;;;34.60;15.10;;;;;;6176275;28;20670;-69
2023/01/30 13:04:37;;;;;;;8.93;5.97;;;34.80;15.50;;;;;;6176237;28;20237;-69
2023/01/30 13:08:09;;;;;;;7.90;7.20;;;35.80;14.80;;;;;;6176149;28;20230;-68
2023/01/30 13:11:30;;;;;;;14.00;12.50;;;35.10;14.60;;;;;;6199567;28;20240;-68
2023/01/30 13:14:39;;;;;;;16.20;10.48;;;34.10;15.20;;;;;;6181525;28;20226;-68
2023/01/30 13:17:53;;;;;;;10.77;8.40;;;33.30;15.50;;;;;;6202319;28;20229;-68
2023/01/30 13:21:06;;;;;;;11.68;10.52;;;33.30;15.80;;;;;;6185580;28;20657;-67
2023/01/30 13:24:21;;;;;;;10.23;8.57;;;33.90;15.80;;;;;;6197966;28;20303;-67
2023/01/30 13:27:28;;;;;;;18.13;16.23;;;34.20;15.50;;;;;;6189483;28;20236;-67
2023/01/30 13:30:32;;;;;;;19.75;17.30;;;33.80;15.70;;;;;;6194930;28;20234;-67
2023/01/30 13:33:38;;;;;;;22.63;17.27;;;33.40;16.20;;;;;;6180456;28;20229;-67
2023/01/30 13:36:47;;;;;;;9.33;8.43;;;33.20;16.10;;;;;;6180124;28;20571;-67
2023/01/30 13:39:54;;;;;;;11.30;10.20;;;30.60;17.60;;;;;;6180509;28;20229;-67
2023/01/30 13:43:03;;;;;;;26.40;17.37;;;31.00;17.60;;;;;;6175114;28;20237;-67
2023/01/30 13:46:09;;;;;;;15.00;11.10;;;30.00;17.80;;;;;;6180370;28;20315;-68
2023/01/30 13:49:21;;;;;;;59.77;43.17;;;28.70;18.80;;;;;;6171441;28;20242;-67
2023/01/30 13:52:30;;;;;;;15.67;12.30;;;28.80;19.10;;;;;;6196811;28;20280;-67
2023/01/30 13:55:41;;;;;;;21.17;17.60;;;29.00;18.90;;;;;;6186138;28;20716;-66
2023/01/30 13:58:50;;;;;;;29.23;23.00;;;29.00;18.90;;;;;;6199487;28;20252;-67
2023/01/30 14:02:17;;;;;;;39.23;27.93;;;28.90;18.90;;;;;;6183433;28;20550;-68
2023/01/30 14:06:00;;;;;;;22.50;16.70;;;28.60;19.00;;;;;;6158564;28;20222;-66
2023/01/30 14:09:18;;;;;;;11.03;9.40;;;28.80;19.50;;;;;;6173581;28;20245;-68
2023/01/30 14:12:25;;;;;;;29.03;19.03;;;28.90;19.20;;;;;;6155970;28;20253;-68
2023/01/30 14:15:30;;;;;;;20.13;15.07;;;27.90;19.00;;;;;;6160488;28;20229;-66
2023/01/30 14:18:37;;;;;;;28.17;17.30;;;27.40;20.00;;;;;;6162209;28;20231;-67
2023/01/30 14:21:53;;;;;;;26.63;15.87;;;26.20;20.70;;;;;;6179475;28;20241;-68
2023/01/30 14:25:45;;;;;;;13.73;9.13;;;23.70;22.50;;;;;;6160163;28;20227;-67
2023/01/30 14:28:49;;;;;;;47.60;24.20;;;21.20;24.20;;;;;;6175235;28;20453;-67
2023/01/30 14:31:54;;;;;;;14.03;9.20;;;18.30;26.80;;;;;;6165160;28;20280;-66
2023/01/30 14:35:20;;;;;;;16.90;12.70;;;16.20;28.80;;;;;;6200239;28;21052;-67
2023/01/30 14:38:24;;;;;;;11.30;8.20;;;14.10;32.00;;;;;;6178608;28;20785;-67
2023/01/30 14:41:28;;;;;;;16.27;11.47;;;13.20;33.70;;;;;;6178929;28;20441;-67
2023/01/30 14:45:04;;;;;;;14.17;12.20;;;11.60;36.80;;;;;;6180908;28;20754;-67
2023/01/30 14:48:29;;;;;;;12.27;11.00;;;11.10;39.00;;;;;;6196470;28;21010;-68
2023/01/30 14:51:36;;;;;;;9.97;8.93;;;10.70;40.00;;;;;;6164751;28;20496;-67
2023/01/30 14:54:48;;;;;;;7.47;6.73;;;10.40;40.80;;;;;;6167712;28;20478;-70
2023/01/30 14:57:55;;;;;;;8.07;6.00;;;10.20;41.40;;;;;;6166870;28;20486;-67
2023/01/30 15:00:59;;;;;;;15.17;8.83;;;10.00;42.20;;;;;;6165686;28;20486;-68
2023/01/30 15:04:04;;;;;;;10.33;6.67;;;9.80;43.70;;;;;;6181021;28;20481;-65
2023/01/30 15:07:12;;;;;;;11.13;8.90;;;9.60;44.80;;;;;;6188224;28;20476;-66
2023/01/30 15:10:30;;;;;;;8.43;6.00;;;9.50;45.50;;;;;;6193463;28;20802;-67
2023/01/30 15:13:55;;;;;;;11.57;7.80;;;9.50;46.00;;;;;;6184968;28;20485;-66
2023/01/30 15:17:09;;;;;;;10.00;7.00;;;9.50;46.60;;;;;;6200142;28;20512;-66
2023/01/30 15:20:25;;;;;;;10.47;7.23;;;9.50;47.10;;;;;;6179601;28;20493;-66
2023/01/30 15:23:56;;;;;;;11.33;8.53;;;9.40;47.70;;;;;;6169709;28;20879;-66
2023/01/30 15:27:09;;;;;;;8.77;7.23;;;9.30;48.40;;;;;;6186473;28;20550;-66
2023/01/30 15:30:33;;;;;;;11.73;8.00;;;9.20;49.30;;;;;;6177438;28;20950;-66
2023/01/30 15:33:44;;;;;;;16.83;10.50;;;9.10;49.50;;;;;;6177627;28;20474;-67
2023/01/30 15:36:49;;;;;;;11.53;8.30;;;8.90;50.00;;;;;;6176644;28;20822;-67
2023/01/30 15:40:19;;;;;;;10.17;7.63;;;8.80;50.80;;;;;;6177925;28;20473;-67
2023/01/30 15:44:00;;;;;;;10.53;7.10;;;8.60;51.50;;;;;;6177887;28;20544;-68
2023/01/30 15:47:46;;;;;;;14.97;12.27;;;8.50;52.30;;;;;;6177514;28;20470;-67
2023/01/30 15:50:52;;;;;;;14.67;11.47;;;8.30;53.70;;;;;;6168609;28;20783;-67
2023/01/30 15:53:58;;;;;;;14.00;9.90;;;8.20;54.30;;;;;;6178516;28;20985;-67
2023/01/30 15:57:01;;;;;;;12.77;10.33;;;8.00;55.80;;;;;;6178303;28;20472;-67
2023/01/30 16:00:07;;;;;;;14.10;10.70;;;7.80;56.40;;;;;;6195337;28;20496;-67
2023/01/30 16:03:14;;;;;;;10.60;8.77;;;7.60;57.60;;;;;;6171010;28;20474;-67
2023/01/30 16:06:24;;;;;;;15.10;9.30;;;7.60;58.50;;;;;;6153097;28;20495;-67
2023/01/30 16:09:28;;;;;;;13.30;9.50;;;7.50;59.60;;;;;;6153739;28;20489;-67
2023/01/30 16:12:32;;;;;;;15.10;9.43;;;7.50;60.10;;;;;;6152955;28;20571;-67
2023/01/30 16:15:41;;;;;;;12.97;10.47;;;7.30;61.20;;;;;;6153735;28;20557;-67